Main page
METAR-TAF:

METAR-TAF

Airports :

Herat, Afghanistan

Herat International Airport

latitude: 34-13N, longitude: 062-13E, elevation: 964 m

Current weather observation

The report was made 24 minutes ago, at 09:55 UTC
Wind 17 kt from the North
Temperature 34°C
Humidity 15%
Pressure 1010 hPa
Visibility 10 km or more
no clouds below 1500 m and no cumulonimbus

METAR: OAHR 210955Z 01017KT CAVOK 34/04 Q1010 RMK BLU

Time: 14:49 (10:19 UTC)

Forecast

The report was made 5 hours and 19 minutes ago, at 05:00 UTC
Forecast valid from 21 at 06 UTC to 22 at 06 UTC
Wind 8 kt from the North/Northeast
Visibility 10 km or more
no clouds below 1500 m and no cumulonimbus
Becoming
from 21 at 06 UTC to 21 at 08 UTC
Wind 20 kt from the North/Northeast with gusts up to 30 kt
Becoming
from 21 at 15 UTC to 21 at 17 UTC
Wind 8 kt from the North/Northeast

TAF: OAHR 210500Z 2106/2206 03008KT CAVOK BECMG 2106/2108 03020G30KT BECMG 2115/2117 03008KT

Weather observations and forecasts of more than 4000 airports (METAR and TAF reports).

The available stations are represented by yellow and red dots on the map.

Hover mouse over dot to see the name of the station.

Then click to see weather observations and forecasts.

To change the map : click on the green buttons with a black cross to zoom in, on the green button with a dash to zoom out, or on the green arrows for adjacent maps.


METAR-TAF: